sensor_id;sensor_type;location;lat;lon;timestamp;pressure;altitude;pressure_sealevel;temperature;humidity
41636;BME280;27623;51.966;4.602;2023-04-30T00:00:44;64312.25;;;11.37;83.32
41636;BME280;27623;51.966;4.602;2023-04-30T00:03:14;64292.59;;;11.33;83.28
41636;BME280;27623;51.966;4.602;2023-04-30T00:05:40;64288.31;;;11.08;84.67
41636;BME280;27623;51.966;4.602;2023-04-30T00:08:05;64240.28;;;10.98;84.87
41636;BME280;27623;51.966;4.602;2023-04-30T00:10:30;64284.88;;;11.02;84.35
41636;BME280;27623;51.966;4.602;2023-04-30T00:12:56;64260.16;;;10.91;85.04
41636;BME280;27623;51.966;4.602;2023-04-30T00:15:21;64289.03;;;11.11;84.36
41636;BME280;27623;51.966;4.602;2023-04-30T00:17:47;64275.25;;;10.95;85.13
41636;BME280;27623;51.966;4.602;2023-04-30T00:20:12;64267.03;;;11.02;84.26
41636;BME280;27623;51.966;4.602;2023-04-30T00:22:38;64250.91;;;10.82;84.46
41636;BME280;27623;51.966;4.602;2023-04-30T00:25:03;64236.63;;;10.59;86.25
41636;BME280;27623;51.966;4.602;2023-04-30T00:27:29;64238.06;;;10.58;86.76
41636;BME280;27623;51.966;4.602;2023-04-30T00:29:58;64240.19;;;10.75;86.75
41636;BME280;27623;51.966;4.602;2023-04-30T00:32:23;64261.25;;;10.92;85.89
41636;BME280;27623;51.966;4.602;2023-04-30T00:34:49;64221.56;;;10.86;85.56
41636;BME280;27623;51.966;4.602;2023-04-30T00:37:14;64237.22;;;10.84;85.33
41636;BME280;27623;51.966;4.602;2023-04-30T00:39:39;64242.22;;;10.67;85.99
41636;BME280;27623;51.966;4.602;2023-04-30T00:42:05;64286.97;;;10.80;86.09
41636;BME280;27623;51.966;4.602;2023-04-30T00:44:31;64241.94;;;10.93;85.49
41636;BME280;27623;51.966;4.602;2023-04-30T00:46:56;64270.50;;;11.00;84.94
41636;BME280;27623;51.966;4.602;2023-04-30T00:49:21;64257.41;;;10.95;85.46
41636;BME280;27623;51.966;4.602;2023-04-30T00:51:47;64267.22;;;10.97;86.71
41636;BME280;27623;51.966;4.602;2023-04-30T00:54:16;64246.72;;;10.81;87.02
41636;BME280;27623;51.966;4.602;2023-04-30T00:56:44;64253.59;;;10.92;87.27
41636;BME280;27623;51.966;4.602;2023-04-30T00:59:11;64272.91;;;10.84;87.60
41636;BME280;27623;51.966;4.602;2023-04-30T01:01:37;64255.31;;;10.72;88.47
41636;BME280;27623;51.966;4.602;2023-04-30T01:04:03;64261.84;;;10.78;89.03
41636;BME280;27623;51.966;4.602;2023-04-30T01:06:31;64215.06;;;10.73;90.30
41636;BME280;27623;51.966;4.602;2023-04-30T01:08:57;64268.03;;;10.79;90.28
41636;BME280;27623;51.966;4.602;2023-04-30T01:17:56;64205.50;;;10.59;89.13
41636;BME280;27623;51.966;4.602;2023-04-30T01:20:27;64254.97;;;10.60;89.26
41636;BME280;27623;51.966;4.602;2023-04-30T01:23:23;64225.34;;;10.58;89.50
41636;BME280;27623;51.966;4.602;2023-04-30T01:26:03;64236.09;;;10.52;90.53
41636;BME280;27623;51.966;4.602;2023-04-30T01:28:34;64192.66;;;10.35;90.51
41636;BME280;27623;51.966;4.602;2023-04-30T01:31:00;64212.81;;;10.40;89.73
41636;BME280;27623;51.966;4.602;2023-04-30T01:33:25;64224.63;;;10.48;89.61
41636;BME280;27623;51.966;4.602;2023-04-30T01:36:15;64236.66;;;10.45;90.07
41636;BME280;27623;51.966;4.602;2023-04-30T01:39:05;64170.16;;;10.19;91.40
41636;BME280;27623;51.966;4.602;2023-04-30T01:46:56;64206.28;;;10.41;89.72
41636;BME280;27623;51.966;4.602;2023-04-30T01:52:43;64171.19;;;10.34;90.10
41636;BME280;27623;51.966;4.602;2023-04-30T01:55:20;64171.97;;;10.23;91.14
41636;BME280;27623;51.966;4.602;2023-04-30T01:57:59;64162.31;;;10.23;91.29
41636;BME280;27623;51.966;4.602;2023-04-30T02:00:26;64157.06;;;10.21;91.69
41636;BME280;27623;51.966;4.602;2023-04-30T02:02:52;64187.22;;;10.30;90.70
41636;BME280;27623;51.966;4.602;2023-04-30T02:05:18;64211.22;;;10.31;91.05
41636;BME280;27623;51.966;4.602;2023-04-30T02:07:44;64135.28;;;10.08;91.19
41636;BME280;27623;51.966;4.602;2023-04-30T02:10:11;64163.63;;;10.13;91.78
41636;BME280;27623;51.966;4.602;2023-04-30T02:12:36;64165.44;;;10.10;91.63
41636;BME280;27623;51.966;4.602;2023-04-30T02:15:06;64180.34;;;10.19;91.60
41636;BME280;27623;51.966;4.602;2023-04-30T02:17:34;64170.69;;;10.26;91.05
41636;BME280;27623;51.966;4.602;2023-04-30T02:20:02;64181.59;;;10.29;91.49
41636;BME280;27623;51.966;4.602;2023-04-30T02:22:27;64206.50;;;10.36;90.94
41636;BME280;27623;51.966;4.602;2023-04-30T02:24:53;64181.03;;;10.36;91.08
41636;BME280;27623;51.966;4.602;2023-04-30T02:27:20;64189.59;;;10.27;91.97
41636;BME280;27623;51.966;4.602;2023-04-30T02:29:48;64225.06;;;10.25;92.75
41636;BME280;27623;51.966;4.602;2023-04-30T02:32:14;64222.66;;;10.42;92.18
41636;BME280;27623;51.966;4.602;2023-04-30T02:34:40;64221.56;;;10.41;92.09
41636;BME280;27623;51.966;4.602;2023-04-30T02:37:06;64223.53;;;10.47;91.58
41636;BME280;27623;51.966;4.602;2023-04-30T02:39:31;64188.25;;;10.45;92.34
41636;BME280;27623;51.966;4.602;2023-04-30T02:41:57;64174.84;;;10.28;93.17
41636;BME280;27623;51.966;4.602;2023-04-30T02:44:25;64191.06;;;10.26;93.39
41636;BME280;27623;51.966;4.602;2023-04-30T02:46:50;64185.03;;;10.28;92.89
41636;BME280;27623;51.966;4.602;2023-04-30T02:49:16;64219.22;;;10.36;93.14
41636;BME280;27623;51.966;4.602;2023-04-30T02:51:43;64202.13;;;10.39;92.35
41636;BME280;27623;51.966;4.602;2023-04-30T02:54:09;64178.69;;;10.17;93.75
41636;BME280;27623;51.966;4.602;2023-04-30T02:56:34;64205.78;;;10.26;93.33
41636;BME280;27623;51.966;4.602;2023-04-30T02:59:00;64191.56;;;10.34;93.15
41636;BME280;27623;51.966;4.602;2023-04-30T03:01:25;64201.44;;;10.22;94.41
41636;BME280;27623;51.966;4.602;2023-04-30T03:03:51;64164.31;;;10.23;94.55
41636;BME280;27623;51.966;4.602;2023-04-30T03:06:16;64218.53;;;10.26;94.58
41636;BME280;27623;51.966;4.602;2023-04-30T03:08:42;64214.47;;;10.41;94.17
41636;BME280;27623;51.966;4.602;2023-04-30T03:11:07;64203.41;;;10.36;93.35
41636;BME280;27623;51.966;4.602;2023-04-30T03:13:35;64193.78;;;10.22;94.49
41636;BME280;27623;51.966;4.602;2023-04-30T03:16:02;64207.22;;;10.32;94.36
41636;BME280;27623;51.966;4.602;2023-04-30T03:18:32;64172.13;;;10.32;94.38
41636;BME280;27623;51.966;4.602;2023-04-30T03:20:58;64187.41;;;10.25;94.41
41636;BME280;27623;51.966;4.602;2023-04-30T03:23:25;64180.50;;;10.21;94.38
41636;BME280;27623;51.966;4.602;2023-04-30T03:25:51;64215.06;;;10.20;93.91
41636;BME280;27623;51.966;4.602;2023-04-30T03:28:16;64151.69;;;9.94;95.04
41636;BME280;27623;51.966;4.602;2023-04-30T03:30:43;64166.72;;;10.06;94.98
41636;BME280;27623;51.966;4.602;2023-04-30T03:33:09;64146.91;;;10.07;94.53
41636;BME280;27623;51.966;4.602;2023-04-30T03:35:36;64147.13;;;9.95;95.61
41636;BME280;27623;51.966;4.602;2023-04-30T03:38:02;64191.63;;;10.13;94.72
41636;BME280;27623;51.966;4.602;2023-04-30T03:40:27;64141.81;;;10.07;94.96
41636;BME280;27623;51.966;4.602;2023-04-30T03:42:54;64145.34;;;9.91;95.60
41636;BME280;27623;51.966;4.602;2023-04-30T03:45:19;64132.59;;;9.91;95.08
41636;BME280;27623;51.966;4.602;2023-04-30T03:47:45;64174.56;;;10.02;94.24
41636;BME280;27623;51.966;4.602;2023-04-30T03:50:13;64156.22;;;9.94;94.62
41636;BME280;27623;51.966;4.602;2023-04-30T03:52:38;64160.63;;;9.84;95.32
41636;BME280;27623;51.966;4.602;2023-04-30T03:55:04;64182.03;;;9.99;94.77
41636;BME280;27623;51.966;4.602;2023-04-30T03:57:31;64168.19;;;9.98;94.68
41636;BME280;27623;51.966;4.602;2023-04-30T03:59:56;64144.84;;;9.76;95.36
41636;BME280;27623;51.966;4.602;2023-04-30T04:02:22;64126.81;;;9.81;95.28
41636;BME280;27623;51.966;4.602;2023-04-30T04:04:48;64116.91;;;9.55;96.96
41636;BME280;27623;51.966;4.602;2023-04-30T04:07:14;64138.50;;;9.65;96.51
41636;BME280;27623;51.966;4.602;2023-04-30T04:09:40;64159.00;;;9.75;95.48
41636;BME280;27623;51.966;4.602;2023-04-30T04:12:06;64142.44;;;9.86;95.02
41636;BME280;27623;51.966;4.602;2023-04-30T04:14:31;64162.44;;;9.88;94.53
41636;BME280;27623;51.966;4.602;2023-04-30T04:16:57;64168.78;;;9.84;94.71
41636;BME280;27623;51.966;4.602;2023-04-30T04:19:24;64120.47;;;9.77;95.07
41636;BME280;27623;51.966;4.602;2023-04-30T04:21:49;64149.41;;;9.69;96.19
41636;BME280;27623;51.966;4.602;2023-04-30T04:24:15;64128.31;;;9.65;96.22
41636;BME280;27623;51.966;4.602;2023-04-30T04:26:42;64155.16;;;9.86;95.56
41636;BME280;27623;51.966;4.602;2023-04-30T04:29:08;64132.84;;;9.72;96.67
41636;BME280;27623;51.966;4.602;2023-04-30T04:31:34;64116.16;;;9.66;97.64
41636;BME280;27623;51.966;4.602;2023-04-30T04:34:02;64132.66;;;9.77;96.80
41636;BME280;27623;51.966;4.602;2023-04-30T04:36:30;64162.63;;;9.83;96.91
41636;BME280;27623;51.966;4.602;2023-04-30T04:38:57;64119.41;;;9.69;97.54
41636;BME280;27623;51.966;4.602;2023-04-30T04:41:27;64104.91;;;9.58;97.79
41636;BME280;27623;51.966;4.602;2023-04-30T04:43:54;64097.09;;;9.55;97.80
41636;BME280;27623;51.966;4.602;2023-04-30T04:46:21;64151.03;;;9.70;97.12
41636;BME280;27623;51.966;4.602;2023-04-30T04:48:47;64159.72;;;9.78;96.23
41636;BME280;27623;51.966;4.602;2023-04-30T04:51:12;64091.06;;;9.71;97.24
41636;BME280;27623;51.966;4.602;2023-04-30T04:53:38;64108.69;;;9.69;97.28
41636;BME280;27623;51.966;4.602;2023-04-30T04:56:07;64152.84;;;9.67;97.79
41636;BME280;27623;51.966;4.602;2023-04-30T04:58:33;64141.91;;;9.78;97.55
41636;BME280;27623;51.966;4.602;2023-04-30T05:00:59;64147.53;;;9.86;97.56
41636;BME280;27623;51.966;4.602;2023-04-30T05:03:25;64172.97;;;9.86;97.42
41636;BME280;27623;51.966;4.602;2023-04-30T05:05:53;64137.19;;;9.76;97.97
41636;BME280;27623;51.966;4.602;2023-04-30T05:08:18;64146.63;;;9.87;97.65
41636;BME280;27623;51.966;4.602;2023-04-30T05:10:44;64174.38;;;9.99;97.40
41636;BME280;27623;51.966;4.602;2023-04-30T05:13:09;64161.03;;;9.68;98.90
41636;BME280;27623;51.966;4.602;2023-04-30T05:15:35;64125.97;;;9.61;99.73
41636;BME280;27623;51.966;4.602;2023-04-30T05:18:03;64184.81;;;9.73;99.22
41636;BME280;27623;51.966;4.602;2023-04-30T05:20:28;64138.25;;;9.84;98.55
41636;BME280;27623;51.966;4.602;2023-04-30T05:22:54;64136.25;;;9.85;98.90
41636;BME280;27623;51.966;4.602;2023-04-30T05:25:19;64115.41;;;9.70;99.22
41636;BME280;27623;51.966;4.602;2023-04-30T05:27:47;64126.47;;;9.76;98.74
41636;BME280;27623;51.966;4.602;2023-04-30T05:30:12;64124.09;;;9.78;99.06
41636;BME280;27623;51.966;4.602;2023-04-30T05:32:40;64150.66;;;9.72;99.12
41636;BME280;27623;51.966;4.602;2023-04-30T05:35:06;64129.88;;;9.88;98.36
41636;BME280;27623;51.966;4.602;2023-04-30T05:37:34;64149.16;;;9.80;98.86
41636;BME280;27623;51.966;4.602;2023-04-30T05:39:59;64143.41;;;9.70;100.00
41636;BME280;27623;51.966;4.602;2023-04-30T05:42:24;64102.50;;;9.75;99.26
41636;BME280;27623;51.966;4.602;2023-04-30T05:44:50;64170.59;;;9.88;99.31
41636;BME280;27623;51.966;4.602;2023-04-30T05:47:15;64174.59;;;9.87;99.01
41636;BME280;27623;51.966;4.602;2023-04-30T05:49:41;64127.72;;;9.86;99.12
41636;BME280;27623;51.966;4.602;2023-04-30T05:52:06;64134.66;;;9.76;100.00
41636;BME280;27623;51.966;4.602;2023-04-30T05:54:34;64122.50;;;9.70;100.00
41636;BME280;27623;51.966;4.602;2023-04-30T05:56:59;64132.31;;;9.64;100.00
41636;BME280;27623;51.966;4.602;2023-04-30T05:59:25;64107.63;;;9.60;100.00
41636;BME280;27623;51.966;4.602;2023-04-30T06:01:51;64113.28;;;9.54;100.00
41636;BME280;27623;51.966;4.602;2023-04-30T06:04:16;64133.03;;;9.68;100.00
41636;BME280;27623;51.966;4.602;2023-04-30T06:06:41;64140.69;;;9.68;100.00
41636;BME280;27623;51.966;4.602;2023-04-30T06:09:07;64134.47;;;9.74;100.00
41636;BME280;27623;51.966;4.602;2023-04-30T06:11:33;64138.81;;;9.78;100.00
41636;BME280;27623;51.966;4.602;2023-04-30T06:13:58;64125.22;;;9.65;100.00
41636;BME280;27623;51.966;4.602;2023-04-30T06:16:24;64161.00;;;9.75;100.00
41636;BME280;27623;51.966;4.602;2023-04-30T06:18:49;64150.13;;;9.72;100.00
41636;BME280;27623;51.966;4.602;2023-04-30T06:21:14;64154.50;;;9.61;100.00
41636;BME280;27623;51.966;4.602;2023-04-30T06:23:40;64105.19;;;9.77;100.00
41636;BME280;27623;51.966;4.602;2023-04-30T06:26:05;64150.25;;;9.81;100.00
41636;BME280;27623;51.966;4.602;2023-04-30T06:28:30;64123.91;;;9.83;100.00
41636;BME280;27623;51.966;4.602;2023-04-30T06:30:56;64169.34;;;9.85;100.00
41636;BME280;27623;51.966;4.602;2023-04-30T06:33:21;64141.84;;;9.99;100.00
41636;BME280;27623;51.966;4.602;2023-04-30T06:35:47;64180.00;;;9.99;100.00
41636;BME280;27623;51.966;4.602;2023-04-30T06:38:14;64169.50;;;9.94;100.00
41636;BME280;27623;51.966;4.602;2023-04-30T06:40:40;64170.59;;;9.95;100.00
41636;BME280;27623;51.966;4.602;2023-04-30T06:43:07;64156.75;;;10.02;100.00
41636;BME280;27623;51.966;4.602;2023-04-30T06:45:35;64184.72;;;10.16;100.00
41636;BME280;27623;51.966;4.602;2023-04-30T06:48:03;64202.34;;;10.13;100.00
41636;BME280;27623;51.966;4.602;2023-04-30T06:50:28;64181.97;;;10.20;100.00
41636;BME280;27623;51.966;4.602;2023-04-30T06:52:53;64238.69;;;10.30;100.00
41636;BME280;27623;51.966;4.602;2023-04-30T06:55:19;64222.84;;;10.37;100.00
41636;BME280;27623;51.966;4.602;2023-04-30T06:57:45;64253.38;;;10.44;100.00
41636;BME280;27623;51.966;4.602;2023-04-30T07:00:13;64222.25;;;10.51;100.00
41636;BME280;27623;51.966;4.602;2023-04-30T07:02:41;64259.69;;;10.62;100.00
41636;BME280;27623;51.966;4.602;2023-04-30T07:05:09;64218.25;;;10.52;100.00
41636;BME280;27623;51.966;4.602;2023-04-30T07:07:35;64243.13;;;10.65;100.00
41636;BME280;27623;51.966;4.602;2023-04-30T07:10:01;64248.22;;;10.73;100.00
41636;BME280;27623;51.966;4.602;2023-04-30T07:12:31;64262.22;;;10.76;100.00
41636;BME280;27623;51.966;4.602;2023-04-30T07:14:56;64262.72;;;10.84;100.00
41636;BME280;27623;51.966;4.602;2023-04-30T07:17:21;64283.81;;;10.94;100.00
41636;BME280;27623;51.966;4.602;2023-04-30T07:19:47;64266.16;;;10.89;100.00
41636;BME280;27623;51.966;4.602;2023-04-30T07:22:12;64274.34;;;10.97;99.86
41636;BME280;27623;51.966;4.602;2023-04-30T07:24:38;64282.91;;;10.95;100.00
41636;BME280;27623;51.966;4.602;2023-04-30T07:27:05;64256.31;;;10.94;100.00
41636;BME280;27623;51.966;4.602;2023-04-30T07:29:34;64297.25;;;11.04;100.00
41636;BME280;27623;51.966;4.602;2023-04-30T07:31:59;64301.22;;;11.10;100.00
41636;BME280;27623;51.966;4.602;2023-04-30T07:34:27;64311.59;;;11.13;100.00
41636;BME280;27623;51.966;4.602;2023-04-30T07:36:52;64273.53;;;11.15;100.00
41636;BME280;27623;51.966;4.602;2023-04-30T07:39:18;64344.00;;;11.24;100.00
41636;BME280;27623;51.966;4.602;2023-04-30T07:41:44;64301.03;;;11.22;100.00
41636;BME280;27623;51.966;4.602;2023-04-30T07:44:14;64312.81;;;11.30;100.00
41636;BME280;27623;51.966;4.602;2023-04-30T07:46:39;64368.72;;;11.42;100.00
41636;BME280;27623;51.966;4.602;2023-04-30T07:49:05;64370.31;;;11.58;99.02
41636;BME280;27623;51.966;4.602;2023-04-30T07:51:30;64371.03;;;11.61;99.47
41636;BME280;27623;51.966;4.602;2023-04-30T07:53:59;64342.44;;;11.53;100.00
41636;BME280;27623;51.966;4.602;2023-04-30T07:56:24;64371.56;;;11.61;100.00
41636;BME280;27623;51.966;4.602;2023-04-30T07:58:50;64363.03;;;11.56;98.51
41636;BME280;27623;51.966;4.602;2023-04-30T08:01:15;64343.63;;;11.71;98.89
41636;BME280;27623;51.966;4.602;2023-04-30T08:03:41;64379.34;;;11.78;98.99
41636;BME280;27623;51.966;4.602;2023-04-30T08:06:06;64369.50;;;11.83;99.24
41636;BME280;27623;51.966;4.602;2023-04-30T08:08:32;64411.41;;;11.91;100.00
41636;BME280;27623;51.966;4.602;2023-04-30T08:10:59;64459.13;;;12.10;99.98
41636;BME280;27623;51.966;4.602;2023-04-30T08:13:25;64398.41;;;12.03;97.62
41636;BME280;27623;51.966;4.602;2023-04-30T08:15:52;64415.16;;;12.09;98.57
41636;BME280;27623;51.966;4.602;2023-04-30T08:18:18;64412.19;;;12.18;99.19
41636;BME280;27623;51.966;4.602;2023-04-30T08:20:43;64436.41;;;12.29;99.80
41636;BME280;27623;51.966;4.602;2023-04-30T08:23:08;64463.75;;;12.40;99.13
41636;BME280;27623;51.966;4.602;2023-04-30T08:25:34;64481.38;;;12.59;98.33
41636;BME280;27623;51.966;4.602;2023-04-30T08:28:01;64515.81;;;12.69;96.44
41636;BME280;27623;51.966;4.602;2023-04-30T08:30:26;64534.97;;;12.80;93.81
41636;BME280;27623;51.966;4.602;2023-04-30T08:32:51;64518.72;;;12.82;94.58
41636;BME280;27623;51.966;4.602;2023-04-30T08:35:17;64502.19;;;12.95;93.30
41636;BME280;27623;51.966;4.602;2023-04-30T08:37:42;64524.63;;;13.01;94.25
41636;BME280;27623;51.966;4.602;2023-04-30T08:40:08;64528.16;;;12.93;92.29
41636;BME280;27623;51.966;4.602;2023-04-30T08:42:37;64542.53;;;13.08;93.06
41636;BME280;27623;51.966;4.602;2023-04-30T08:45:07;64552.75;;;13.08;91.35
41636;BME280;27623;51.966;4.602;2023-04-30T08:47:36;64541.88;;;13.29;92.36
41636;BME280;27623;51.966;4.602;2023-04-30T08:50:03;64606.69;;;13.49;92.16
41636;BME280;27623;51.966;4.602;2023-04-30T08:52:29;64614.28;;;13.63;92.47
41636;BME280;27623;51.966;4.602;2023-04-30T08:55:00;64617.19;;;13.68;91.20
41636;BME280;27623;51.966;4.602;2023-04-30T08:57:25;64618.13;;;13.67;88.34
41636;BME280;27623;51.966;4.602;2023-04-30T08:59:54;64627.41;;;13.75;88.40
41636;BME280;27623;51.966;4.602;2023-04-30T09:02:21;64634.91;;;13.73;87.87
41636;BME280;27623;51.966;4.602;2023-04-30T09:04:48;64617.09;;;13.90;88.94
41636;BME280;27623;51.966;4.602;2023-04-30T09:07:14;64676.84;;;14.02;88.21
41636;BME280;27623;51.966;4.602;2023-04-30T09:09:40;64637.13;;;14.06;87.80
41636;BME280;27623;51.966;4.602;2023-04-30T09:12:13;64659.44;;;14.10;85.88
41636;BME280;27623;51.966;4.602;2023-04-30T09:14:39;64674.22;;;14.17;86.45
41636;BME280;27623;51.966;4.602;2023-04-30T09:17:06;64702.16;;;14.28;87.83
41636;BME280;27623;51.966;4.602;2023-04-30T09:19:33;64678.09;;;14.44;88.31
41636;BME280;27623;51.966;4.602;2023-04-30T09:21:58;64704.84;;;14.38;83.18
41636;BME280;27623;51.966;4.602;2023-04-30T09:24:24;64744.50;;;14.63;83.13
41636;BME280;27623;51.966;4.602;2023-04-30T09:26:50;64779.41;;;14.78;84.80
41636;BME280;27623;51.966;4.602;2023-04-30T09:29:18;64741.22;;;14.91;85.22
41636;BME280;27623;51.966;4.602;2023-04-30T09:31:45;64779.44;;;15.02;84.68
41636;BME280;27623;51.966;4.602;2023-04-30T09:34:11;64777.19;;;15.15;84.56
41636;BME280;27623;51.966;4.602;2023-04-30T09:36:36;64786.13;;;15.18;83.06
41636;BME280;27623;51.966;4.602;2023-04-30T09:39:15;64794.69;;;15.31;82.04
41636;BME280;27623;51.966;4.602;2023-04-30T09:41:43;64804.31;;;15.13;78.98
41636;BME280;27623;51.966;4.602;2023-04-30T09:44:28;64802.47;;;15.17;80.04
41636;BME280;27623;51.966;4.602;2023-04-30T09:46:55;64760.63;;;15.21;78.72
41636;BME280;27623;51.966;4.602;2023-04-30T09:49:21;64837.75;;;15.37;78.81
41636;BME280;27623;51.966;4.602;2023-04-30T09:51:57;64809.22;;;15.56;79.96
41636;BME280;27623;51.966;4.602;2023-04-30T09:54:28;64853.13;;;15.75;80.80
41636;BME280;27623;51.966;4.602;2023-04-30T09:56:55;64883.28;;;15.96;80.24
41636;BME280;27623;51.966;4.602;2023-04-30T09:59:34;64880.09;;;16.03;79.07
41636;BME280;27623;51.966;4.602;2023-04-30T10:02:02;64933.56;;;16.26;80.56
41636;BME280;27623;51.966;4.602;2023-04-30T10:04:44;64954.41;;;16.14;73.92
41636;BME280;27623;51.966;4.602;2023-04-30T10:07:15;64925.63;;;16.07;73.17
41636;BME280;27623;51.966;4.602;2023-04-30T10:12:32;64923.41;;;16.36;74.10
41636;BME280;27623;51.966;4.602;2023-04-30T10:15:14;64955.00;;;16.39;73.03
41636;BME280;27623;51.966;4.602;2023-04-30T10:17:40;64999.28;;;16.70;74.64
41636;BME280;27623;51.966;4.602;2023-04-30T10:20:08;64955.56;;;16.63;70.55
41636;BME280;27623;51.966;4.602;2023-04-30T10:22:34;64975.69;;;16.79;70.02
41636;BME280;27623;51.966;4.602;2023-04-30T10:25:01;65023.53;;;17.02;70.28
41636;BME280;27623;51.966;4.602;2023-04-30T10:27:28;65047.53;;;17.15;68.24
41636;BME280;27623;51.966;4.602;2023-04-30T10:29:54;65016.25;;;16.86;66.70
41636;BME280;27623;51.966;4.602;2023-04-30T10:32:20;64980.56;;;16.91;70.21
41636;BME280;27623;51.966;4.602;2023-04-30T10:35:07;65040.16;;;17.13;69.86
41636;BME280;27623;51.966;4.602;2023-04-30T10:37:42;65047.75;;;17.34;70.89
41636;BME280;27623;51.966;4.602;2023-04-30T10:40:10;65007.13;;;17.28;67.27
41636;BME280;27623;51.966;4.602;2023-04-30T10:42:36;65024.13;;;17.20;65.70
41636;BME280;27623;51.966;4.602;2023-04-30T10:45:02;65041.84;;;17.38;64.70
41636;BME280;27623;51.966;4.602;2023-04-30T10:47:28;65095.03;;;17.64;66.24
41636;BME280;27623;51.966;4.602;2023-04-30T10:50:07;65161.09;;;17.96;65.92
41636;BME280;27623;51.966;4.602;2023-04-30T10:52:32;65170.28;;;18.26;63.98
41636;BME280;27623;51.966;4.602;2023-04-30T10:54:58;65208.19;;;18.54;62.85
41636;BME280;27623;51.966;4.602;2023-04-30T10:57:28;65240.06;;;18.83;60.81
41636;BME280;27623;51.966;4.602;2023-04-30T11:02:38;65223.28;;;18.63;57.85
41636;BME280;27623;51.966;4.602;2023-04-30T11:05:08;65259.19;;;18.92;59.42
41636;BME280;27623;51.966;4.602;2023-04-30T11:07:33;65269.19;;;19.10;58.78
41636;BME280;27623;51.966;4.602;2023-04-30T11:10:02;65288.47;;;19.21;57.69
41636;BME280;27623;51.966;4.602;2023-04-30T11:12:27;65262.28;;;19.16;57.18
41636;BME280;27623;51.966;4.602;2023-04-30T11:15:06;65321.72;;;19.40;58.74
41636;BME280;27623;51.966;4.602;2023-04-30T11:17:36;65355.44;;;19.49;56.43
41636;BME280;27623;51.966;4.602;2023-04-30T11:20:05;65346.88;;;19.61;56.27
41636;BME280;27623;51.966;4.602;2023-04-30T11:22:31;65340.94;;;19.65;56.41
41636;BME280;27623;51.966;4.602;2023-04-30T11:27:30;65313.03;;;19.41;58.20
41636;BME280;27623;51.966;4.602;2023-04-30T11:29:57;65374.66;;;19.74;57.29
41636;BME280;27623;51.966;4.602;2023-04-30T11:32:24;65409.47;;;20.09;57.78
41636;BME280;27623;51.966;4.602;2023-04-30T11:34:51;65420.91;;;20.10;55.79
41636;BME280;27623;51.966;4.602;2023-04-30T11:37:26;65449.81;;;20.48;56.21
41636;BME280;27623;51.966;4.602;2023-04-30T11:39:55;65515.56;;;20.80;53.58
41636;BME280;27623;51.966;4.602;2023-04-30T11:42:21;65498.78;;;20.93;53.50
41636;BME280;27623;51.966;4.602;2023-04-30T11:44:46;65519.91;;;20.91;52.73
41636;BME280;27623;51.966;4.602;2023-04-30T11:47:13;65584.63;;;21.22;53.76
41636;BME280;27623;51.966;4.602;2023-04-30T11:49:39;65600.91;;;21.25;51.50
41636;BME280;27623;51.966;4.602;2023-04-30T11:52:04;65601.75;;;21.55;51.16
41636;BME280;27623;51.966;4.602;2023-04-30T11:54:31;65590.66;;;21.52;51.21
41636;BME280;27623;51.966;4.602;2023-04-30T11:56:56;65628.72;;;21.63;49.91
41636;BME280;27623;51.966;4.602;2023-04-30T11:59:28;65597.94;;;21.44;49.19
41636;BME280;27623;51.966;4.602;2023-04-30T12:01:53;65645.09;;;21.76;50.36
41636;BME280;27623;51.966;4.602;2023-04-30T12:04:19;65658.72;;;21.86;49.42
41636;BME280;27623;51.966;4.602;2023-04-30T12:06:44;65686.88;;;21.88;50.13
41636;BME280;27623;51.966;4.602;2023-04-30T12:09:12;65651.47;;;21.86;48.01
41636;BME280;27623;51.966;4.602;2023-04-30T12:11:38;65648.78;;;22.01;48.02
41636;BME280;27623;51.966;4.602;2023-04-30T12:14:07;65661.56;;;21.98;48.17
41636;BME280;27623;51.966;4.602;2023-04-30T12:16:40;65642.75;;;21.88;47.16
41636;BME280;27623;51.966;4.602;2023-04-30T12:19:06;65616.66;;;21.45;48.38
41636;BME280;27623;51.966;4.602;2023-04-30T12:21:32;65634.25;;;21.85;48.16
41636;BME280;27623;51.966;4.602;2023-04-30T12:23:58;65661.63;;;21.91;47.84
41636;BME280;27623;51.966;4.602;2023-04-30T12:26:23;65683.25;;;22.20;44.70
41636;BME280;27623;51.966;4.602;2023-04-30T12:28:50;65728.94;;;22.36;47.69
41636;BME280;27623;51.966;4.602;2023-04-30T12:31:16;65812.78;;;22.80;46.09
41636;BME280;27623;51.966;4.602;2023-04-30T12:33:42;65782.34;;;22.59;46.21
41636;BME280;27623;51.966;4.602;2023-04-30T12:36:12;65811.94;;;22.91;45.69
41636;BME280;27623;51.966;4.602;2023-04-30T12:38:41;65835.69;;;23.13;45.22
41636;BME280;27623;51.966;4.602;2023-04-30T12:41:10;65779.25;;;22.92;44.35
41636;BME280;27623;51.966;4.602;2023-04-30T12:43:39;65746.19;;;22.54;44.57
41636;BME280;27623;51.966;4.602;2023-04-30T12:46:04;65750.22;;;22.60;46.36
41636;BME280;27623;51.966;4.602;2023-04-30T12:48:42;65741.69;;;22.41;45.27
41636;BME280;27623;51.966;4.602;2023-04-30T12:51:09;65792.00;;;22.96;44.78
41636;BME280;27623;51.966;4.602;2023-04-30T12:53:44;65738.25;;;22.69;44.29
41636;BME280;27623;51.966;4.602;2023-04-30T12:56:10;65688.69;;;22.16;44.62
41636;BME280;27623;51.966;4.602;2023-04-30T12:58:37;65735.72;;;22.61;43.24
41636;BME280;27623;51.966;4.602;2023-04-30T13:01:03;65717.97;;;22.36;42.57
41636;BME280;27623;51.966;4.602;2023-04-30T13:03:31;65740.44;;;22.54;42.23
41636;BME280;27623;51.966;4.602;2023-04-30T13:05:56;65782.25;;;22.66;42.84
41636;BME280;27623;51.966;4.602;2023-04-30T13:08:22;65756.50;;;22.61;41.61
41636;BME280;27623;51.966;4.602;2023-04-30T13:10:49;65754.09;;;22.64;41.27
41636;BME280;27623;51.966;4.602;2023-04-30T13:13:15;65767.06;;;22.64;41.00
41636;BME280;27623;51.966;4.602;2023-04-30T13:15:42;65748.69;;;22.45;41.50
41636;BME280;27623;51.966;4.602;2023-04-30T13:18:07;65678.69;;;22.31;42.85
41636;BME280;27623;51.966;4.602;2023-04-30T13:20:37;65746.81;;;22.48;41.81
41636;BME280;27623;51.966;4.602;2023-04-30T13:23:04;65792.94;;;22.78;41.39